sensor_id;sensor_type;location;lat;lon;timestamp;P1;durP1;ratioP1;P2;durP2;ratioP2
23590;SDS011;11973;52.098;7.582;2023-11-21T00:01:01;17.35;;;12.63;;
23590;SDS011;11973;52.098;7.582;2023-11-21T00:03:29;16.98;;;12.35;;
23590;SDS011;11973;52.098;7.582;2023-11-21T00:05:57;22.13;;;12.95;;
23590;SDS011;11973;52.098;7.582;2023-11-21T00:08:23;16.27;;;12.85;;
23590;SDS011;11973;52.098;7.582;2023-11-21T00:10:49;19.90;;;13.90;;
23590;SDS011;11973;52.098;7.582;2023-11-21T00:13:16;18.42;;;13.43;;
23590;SDS011;11973;52.098;7.582;2023-11-21T00:15:41;19.83;;;13.32;;
23590;SDS011;11973;52.098;7.582;2023-11-21T00:18:07;20.67;;;13.25;;
23590;SDS011;11973;52.098;7.582;2023-11-21T00:20:33;19.80;;;14.25;;
23590;SDS011;11973;52.098;7.582;2023-11-21T00:22:59;24.65;;;14.38;;
23590;SDS011;11973;52.098;7.582;2023-11-21T00:25:25;19.15;;;14.27;;
23590;SDS011;11973;52.098;7.582;2023-11-21T00:27:50;22.77;;;15.07;;
23590;SDS011;11973;52.098;7.582;2023-11-21T05:16:27;121.10;;;27.83;;
23590;SDS011;11973;52.098;7.582;2023-11-21T05:18:53;100.82;;;26.95;;
23590;SDS011;11973;52.098;7.582;2023-11-21T05:21:23;100.03;;;25.95;;
23590;SDS011;11973;52.098;7.582;2023-11-21T05:23:49;112.20;;;28.13;;
23590;SDS011;11973;52.098;7.582;2023-11-21T05:26:15;104.05;;;25.50;;
23590;SDS011;11973;52.098;7.582;2023-11-21T05:28:41;104.97;;;26.08;;
23590;SDS011;11973;52.098;7.582;2023-11-21T05:31:07;104.55;;;27.60;;
23590;SDS011;11973;52.098;7.582;2023-11-21T05:33:32;106.32;;;27.05;;
23590;SDS011;11973;52.098;7.582;2023-11-21T05:35:58;122.57;;;26.58;;
23590;SDS011;11973;52.098;7.582;2023-11-21T05:38:24;114.90;;;27.95;;
23590;SDS011;11973;52.098;7.582;2023-11-21T05:40:49;108.55;;;28.27;;
23590;SDS011;11973;52.098;7.582;2023-11-21T05:43:15;115.93;;;28.45;;
23590;SDS011;11973;52.098;7.582;2023-11-21T05:45:41;127.15;;;28.88;;
23590;SDS011;11973;52.098;7.582;2023-11-21T05:48:07;125.93;;;29.58;;
23590;SDS011;11973;52.098;7.582;2023-11-21T05:50:33;124.75;;;28.67;;
23590;SDS011;11973;52.098;7.582;2023-11-21T05:52:59;107.43;;;27.77;;
23590;SDS011;11973;52.098;7.582;2023-11-21T05:55:25;128.35;;;29.38;;
23590;SDS011;11973;52.098;7.582;2023-11-21T05:57:51;125.15;;;28.65;;
23590;SDS011;11973;52.098;7.582;2023-11-21T06:00:17;134.05;;;30.13;;
23590;SDS011;11973;52.098;7.582;2023-11-21T06:02:47;126.90;;;29.90;;
23590;SDS011;11973;52.098;7.582;2023-11-21T06:05:16;121.75;;;29.67;;
23590;SDS011;11973;52.098;7.582;2023-11-21T06:07:43;144.90;;;29.58;;
23590;SDS011;11973;52.098;7.582;2023-11-21T06:10:10;132.38;;;30.20;;
23590;SDS011;11973;52.098;7.582;2023-11-21T06:12:39;137.30;;;28.73;;
23590;SDS011;11973;52.098;7.582;2023-11-21T06:15:05;124.75;;;29.23;;
23590;SDS011;11973;52.098;7.582;2023-11-21T06:17:37;137.18;;;29.92;;
23590;SDS011;11973;52.098;7.582;2023-11-21T06:20:03;136.13;;;30.35;;
23590;SDS011;11973;52.098;7.582;2023-11-21T06:22:34;141.32;;;30.45;;
23590;SDS011;11973;52.098;7.582;2023-11-21T06:25:01;156.93;;;33.58;;
23590;SDS011;11973;52.098;7.582;2023-11-21T06:27:28;151.02;;;32.88;;
23590;SDS011;11973;52.098;7.582;2023-11-21T06:29:54;156.75;;;34.45;;
23590;SDS011;11973;52.098;7.582;2023-11-21T06:32:20;169.02;;;34.90;;
23590;SDS011;11973;52.098;7.582;2023-11-21T06:34:47;173.68;;;35.17;;
23590;SDS011;11973;52.098;7.582;2023-11-21T06:37:14;183.23;;;36.03;;
23590;SDS011;11973;52.098;7.582;2023-11-21T06:39:40;171.98;;;35.88;;
23590;SDS011;11973;52.098;7.582;2023-11-21T06:42:06;185.63;;;36.67;;
23590;SDS011;11973;52.098;7.582;2023-11-21T06:44:32;197.60;;;37.10;;
23590;SDS011;11973;52.098;7.582;2023-11-21T06:46:58;191.55;;;36.53;;
23590;SDS011;11973;52.098;7.582;2023-11-21T06:49:24;200.35;;;39.20;;
23590;SDS011;11973;52.098;7.582;2023-11-21T06:51:51;210.38;;;38.00;;
23590;SDS011;11973;52.098;7.582;2023-11-21T06:54:16;192.10;;;36.92;;
23590;SDS011;11973;52.098;7.582;2023-11-21T06:56:43;195.32;;;36.88;;
23590;SDS011;11973;52.098;7.582;2023-11-21T06:59:08;204.50;;;38.13;;
23590;SDS011;11973;52.098;7.582;2023-11-21T07:01:35;197.88;;;38.15;;
23590;SDS011;11973;52.098;7.582;2023-11-21T07:04:04;204.40;;;38.40;;
23590;SDS011;11973;52.098;7.582;2023-11-21T07:06:34;223.13;;;49.13;;
23590;SDS011;11973;52.098;7.582;2023-11-21T07:09:00;231.13;;;42.58;;
23590;SDS011;11973;52.098;7.582;2023-11-21T07:11:26;226.07;;;41.38;;
23590;SDS011;11973;52.098;7.582;2023-11-21T07:13:52;236.57;;;42.97;;
23590;SDS011;11973;52.098;7.582;2023-11-21T07:16:18;261.92;;;54.25;;
23590;SDS011;11973;52.098;7.582;2023-11-21T07:18:44;243.13;;;42.88;;
23590;SDS011;11973;52.098;7.582;2023-11-21T07:21:10;255.10;;;42.63;;
23590;SDS011;11973;52.098;7.582;2023-11-21T07:23:37;218.02;;;39.45;;
23590;SDS011;11973;52.098;7.582;2023-11-21T07:26:03;230.40;;;38.03;;
23590;SDS011;11973;52.098;7.582;2023-11-21T07:28:34;255.52;;;52.10;;
23590;SDS011;11973;52.098;7.582;2023-11-21T07:31:00;253.48;;;41.83;;
23590;SDS011;11973;52.098;7.582;2023-11-21T07:33:26;239.32;;;42.75;;
23590;SDS011;11973;52.098;7.582;2023-11-21T07:35:52;228.82;;;39.35;;
23590;SDS011;11973;52.098;7.582;2023-11-21T07:38:18;224.35;;;39.03;;
23590;SDS011;11973;52.098;7.582;2023-11-21T07:40:43;194.25;;;36.83;;
23590;SDS011;11973;52.098;7.582;2023-11-21T07:43:09;199.05;;;37.05;;
23590;SDS011;11973;52.098;7.582;2023-11-21T07:45:35;208.73;;;37.90;;
23590;SDS011;11973;52.098;7.582;2023-11-21T07:48:01;228.35;;;38.53;;
23590;SDS011;11973;52.098;7.582;2023-11-21T07:50:29;217.27;;;37.17;;
23590;SDS011;11973;52.098;7.582;2023-11-21T07:52:54;180.27;;;35.55;;
23590;SDS011;11973;52.098;7.582;2023-11-21T07:55:20;176.43;;;34.63;;
23590;SDS011;11973;52.098;7.582;2023-11-21T07:57:46;167.82;;;34.28;;
23590;SDS011;11973;52.098;7.582;2023-11-21T08:00:12;195.05;;;46.22;;
23590;SDS011;11973;52.098;7.582;2023-11-21T08:02:40;159.73;;;36.97;;
23590;SDS011;11973;52.098;7.582;2023-11-21T08:05:11;240.05;;;69.80;;
23590;SDS011;11973;52.098;7.582;2023-11-21T08:07:37;178.50;;;38.97;;
23590;SDS011;11973;52.098;7.582;2023-11-21T08:10:03;180.07;;;42.70;;
23590;SDS011;11973;52.098;7.582;2023-11-21T08:12:30;163.00;;;37.45;;
23590;SDS011;11973;52.098;7.582;2023-11-21T08:14:56;148.25;;;33.47;;
23590;SDS011;11973;52.098;7.582;2023-11-21T08:17:21;151.77;;;31.63;;
23590;SDS011;11973;52.098;7.582;2023-11-21T08:19:48;157.93;;;33.40;;
23590;SDS011;11973;52.098;7.582;2023-11-21T08:22:16;141.27;;;31.13;;
23590;SDS011;11973;52.098;7.582;2023-11-21T08:24:46;140.75;;;32.10;;
23590;SDS011;11973;52.098;7.582;2023-11-21T08:27:12;135.18;;;34.85;;
23590;SDS011;11973;52.098;7.582;2023-11-21T08:29:41;143.65;;;36.72;;
23590;SDS011;11973;52.098;7.582;2023-11-21T08:32:07;122.53;;;30.45;;
23590;SDS011;11973;52.098;7.582;2023-11-21T08:34:33;115.03;;;29.55;;
23590;SDS011;11973;52.098;7.582;2023-11-21T08:36:58;146.35;;;36.83;;
23590;SDS011;11973;52.098;7.582;2023-11-21T08:39:25;128.43;;;32.42;;
23590;SDS011;11973;52.098;7.582;2023-11-21T08:41:52;141.85;;;33.33;;
23590;SDS011;11973;52.098;7.582;2023-11-21T08:44:17;128.88;;;32.13;;
23590;SDS011;11973;52.098;7.582;2023-11-21T08:46:43;136.57;;;32.13;;
23590;SDS011;11973;52.098;7.582;2023-11-21T08:49:12;134.70;;;30.75;;
23590;SDS011;11973;52.098;7.582;2023-11-21T08:51:40;137.02;;;31.05;;
23590;SDS011;11973;52.098;7.582;2023-11-21T08:54:06;131.52;;;31.30;;
23590;SDS011;11973;52.098;7.582;2023-11-21T08:56:34;129.88;;;32.40;;
23590;SDS011;11973;52.098;7.582;2023-11-21T08:59:00;132.77;;;35.97;;
23590;SDS011;11973;52.098;7.582;2023-11-21T09:01:30;138.95;;;33.53;;
23590;SDS011;11973;52.098;7.582;2023-11-21T09:03:59;135.25;;;31.27;;
23590;SDS011;11973;52.098;7.582;2023-11-21T09:06:25;153.85;;;36.10;;
23590;SDS011;11973;52.098;7.582;2023-11-21T09:08:51;127.18;;;31.63;;
23590;SDS011;11973;52.098;7.582;2023-11-21T09:11:16;122.45;;;31.90;;
23590;SDS011;11973;52.098;7.582;2023-11-21T09:13:42;116.10;;;30.67;;
23590;SDS011;11973;52.098;7.582;2023-11-21T09:16:08;128.68;;;31.77;;
23590;SDS011;11973;52.098;7.582;2023-11-21T09:18:34;114.88;;;30.63;;
23590;SDS011;11973;52.098;7.582;2023-11-21T09:21:00;118.18;;;31.17;;
23590;SDS011;11973;52.098;7.582;2023-11-21T09:23:25;104.95;;;29.77;;
23590;SDS011;11973;52.098;7.582;2023-11-21T09:25:51;108.53;;;30.92;;
23590;SDS011;11973;52.098;7.582;2023-11-21T09:28:19;104.57;;;30.00;;
23590;SDS011;11973;52.098;7.582;2023-11-21T09:30:45;108.38;;;31.20;;
23590;SDS011;11973;52.098;7.582;2023-11-21T09:33:11;103.10;;;30.92;;
23590;SDS011;11973;52.098;7.582;2023-11-21T09:35:39;96.40;;;29.83;;
23590;SDS011;11973;52.098;7.582;2023-11-21T09:38:05;101.25;;;29.60;;
23590;SDS011;11973;52.098;7.582;2023-11-21T09:40:35;91.38;;;28.70;;
23590;SDS011;11973;52.098;7.582;2023-11-21T09:43:03;87.53;;;27.65;;
23590;SDS011;11973;52.098;7.582;2023-11-21T09:45:41;97.30;;;28.80;;
23590;SDS011;11973;52.098;7.582;2023-11-21T09:48:10;84.45;;;27.63;;
23590;SDS011;11973;52.098;7.582;2023-11-21T09:50:37;86.15;;;25.98;;
23590;SDS011;11973;52.098;7.582;2023-11-21T09:55:49;88.13;;;25.83;;
23590;SDS011;11973;52.098;7.582;2023-11-21T09:58:18;82.55;;;27.38;;
23590;SDS011;11973;52.098;7.582;2023-11-21T10:00:45;85.95;;;26.02;;
23590;SDS011;11973;52.098;7.582;2023-11-21T10:03:12;88.85;;;26.27;;
23590;SDS011;11973;52.098;7.582;2023-11-21T10:05:39;74.03;;;24.05;;
23590;SDS011;11973;52.098;7.582;2023-11-21T10:08:07;77.93;;;24.88;;
23590;SDS011;11973;52.098;7.582;2023-11-21T10:10:35;82.68;;;25.55;;
23590;SDS011;11973;52.098;7.582;2023-11-21T10:13:11;81.50;;;24.50;;
23590;SDS011;11973;52.098;7.582;2023-11-21T10:15:38;73.53;;;23.52;;
23590;SDS011;11973;52.098;7.582;2023-11-21T10:18:09;75.97;;;23.33;;
23590;SDS011;11973;52.098;7.582;2023-11-21T10:20:35;66.50;;;22.13;;
23590;SDS011;11973;52.098;7.582;2023-11-21T10:23:03;65.55;;;21.75;;
23590;SDS011;11973;52.098;7.582;2023-11-21T10:25:30;67.57;;;21.40;;
23590;SDS011;11973;52.098;7.582;2023-11-21T10:27:59;64.95;;;21.35;;
23590;SDS011;11973;52.098;7.582;2023-11-21T10:30:33;55.63;;;20.15;;
23590;SDS011;11973;52.098;7.582;2023-11-21T10:33:03;57.45;;;20.13;;
23590;SDS011;11973;52.098;7.582;2023-11-21T10:38:20;54.53;;;20.90;;
23590;SDS011;11973;52.098;7.582;2023-11-21T10:40:48;51.92;;;19.83;;
23590;SDS011;11973;52.098;7.582;2023-11-21T10:43:14;53.03;;;18.88;;
23590;SDS011;11973;52.098;7.582;2023-11-21T10:45:41;51.50;;;18.05;;
23590;SDS011;11973;52.098;7.582;2023-11-21T10:48:10;50.42;;;18.02;;
23590;SDS011;11973;52.098;7.582;2023-11-21T10:50:46;50.35;;;17.88;;
23590;SDS011;11973;52.098;7.582;2023-11-21T10:53:12;42.50;;;16.95;;
23590;SDS011;11973;52.098;7.582;2023-11-21T10:55:38;43.92;;;16.52;;
23590;SDS011;11973;52.098;7.582;2023-11-21T10:58:04;44.58;;;16.55;;
23590;SDS011;11973;52.098;7.582;2023-11-21T11:00:31;38.58;;;15.80;;
23590;SDS011;11973;52.098;7.582;2023-11-21T11:02:58;39.45;;;16.83;;
23590;SDS011;11973;52.098;7.582;2023-11-21T11:05:28;37.30;;;15.02;;
23590;SDS011;11973;52.098;7.582;2023-11-21T11:07:58;38.72;;;15.43;;
23590;SDS011;11973;52.098;7.582;2023-11-21T11:10:27;39.08;;;15.93;;
23590;SDS011;11973;52.098;7.582;2023-11-21T11:12:54;38.47;;;15.95;;
23590;SDS011;11973;52.098;7.582;2023-11-21T11:15:22;41.83;;;15.73;;
23590;SDS011;11973;52.098;7.582;2023-11-21T11:17:49;37.55;;;15.32;;
23590;SDS011;11973;52.098;7.582;2023-11-21T11:20:15;34.33;;;15.00;;
23590;SDS011;11973;52.098;7.582;2023-11-21T11:28:44;33.17;;;13.73;;
23590;SDS011;11973;52.098;7.582;2023-11-21T11:41:56;15.07;;;9.90;;
23590;SDS011;11973;52.098;7.582;2023-11-21T11:47:23;9.90;;;8.45;;
23590;SDS011;11973;52.098;7.582;2023-11-21T11:50:09;8.57;;;7.78;;
23590;SDS011;11973;52.098;7.582;2023-11-21T11:55:15;9.52;;;8.48;;
23590;SDS011;11973;52.098;7.582;2023-11-21T11:57:46;11.57;;;8.65;;
23590;SDS011;11973;52.098;7.582;2023-11-21T12:00:14;9.35;;;8.55;;
23590;SDS011;11973;52.098;7.582;2023-11-21T12:03:02;9.10;;;8.27;;
23590;SDS011;11973;52.098;7.582;2023-11-21T12:05:33;13.70;;;12.30;;
23590;SDS011;11973;52.098;7.582;2023-11-21T12:08:11;8.80;;;8.05;;
23590;SDS011;11973;52.098;7.582;2023-11-21T12:10:37;7.55;;;7.15;;
23590;SDS011;11973;52.098;7.582;2023-11-21T12:13:11;7.65;;;7.10;;
23590;SDS011;11973;52.098;7.582;2023-11-21T12:15:39;7.80;;;7.30;;
23590;SDS011;11973;52.098;7.582;2023-11-21T12:18:06;7.05;;;6.65;;
23590;SDS011;11973;52.098;7.582;2023-11-21T12:20:32;7.90;;;7.50;;
23590;SDS011;11973;52.098;7.582;2023-11-21T12:23:03;7.63;;;7.22;;
23590;SDS011;11973;52.098;7.582;2023-11-21T12:25:31;8.32;;;7.72;;
23590;SDS011;11973;52.098;7.582;2023-11-21T12:27:58;8.05;;;7.55;;
23590;SDS011;11973;52.098;7.582;2023-11-21T12:30:26;8.10;;;7.70;;
23590;SDS011;11973;52.098;7.582;2023-11-21T12:32:55;8.25;;;7.65;;
23590;SDS011;11973;52.098;7.582;2023-11-21T12:35:25;8.23;;;7.82;;
23590;SDS011;11973;52.098;7.582;2023-11-21T12:37:52;8.52;;;8.00;;
23590;SDS011;11973;52.098;7.582;2023-11-21T12:40:20;9.15;;;8.48;;
23590;SDS011;11973;52.098;7.582;2023-11-21T12:42:48;8.57;;;8.07;;
23590;SDS011;11973;52.098;7.582;2023-11-21T12:45:22;9.80;;;9.20;;
23590;SDS011;11973;52.098;7.582;2023-11-21T12:47:57;9.25;;;8.55;;
23590;SDS011;11973;52.098;7.582;2023-11-21T12:50:32;9.35;;;8.65;;
23590;SDS011;11973;52.098;7.582;2023-11-21T12:53:01;9.40;;;8.80;;
23590;SDS011;11973;52.098;7.582;2023-11-21T12:55:43;9.15;;;8.63;;
23590;SDS011;11973;52.098;7.582;2023-11-21T12:58:15;10.00;;;9.23;;
23590;SDS011;11973;52.098;7.582;2023-11-21T13:00:47;10.65;;;9.57;;
23590;SDS011;11973;52.098;7.582;2023-11-21T13:03:14;11.50;;;10.35;;
23590;SDS011;11973;52.098;7.582;2023-11-21T13:05:48;11.45;;;10.52;;
23590;SDS011;11973;52.098;7.582;2023-11-21T13:08:19;11.07;;;10.27;;
23590;SDS011;11973;52.098;7.582;2023-11-21T13:10:51;11.20;;;10.20;;
23590;SDS011;11973;52.098;7.582;2023-11-21T13:13:20;10.85;;;9.82;;
23590;SDS011;11973;52.098;7.582;2023-11-21T13:15:50;10.60;;;9.88;;
23590;SDS011;11973;52.098;7.582;2023-11-21T13:18:26;12.05;;;11.05;;
23590;SDS011;11973;52.098;7.582;2023-11-21T13:20:59;12.77;;;11.68;;
23590;SDS011;11973;52.098;7.582;2023-11-21T13:23:37;11.10;;;10.20;;
23590;SDS011;11973;52.098;7.582;2023-11-21T13:26:03;12.23;;;11.13;;
23590;SDS011;11973;52.098;7.582;2023-11-21T13:28:30;12.38;;;11.32;;
23590;SDS011;11973;52.098;7.582;2023-11-21T13:31:00;12.57;;;11.38;;
23590;SDS011;11973;52.098;7.582;2023-11-21T13:33:28;13.18;;;11.30;;
23590;SDS011;11973;52.098;7.582;2023-11-21T13:35:54;12.65;;;11.55;;
23590;SDS011;11973;52.098;7.582;2023-11-21T13:38:21;12.57;;;11.38;;
23590;SDS011;11973;52.098;7.582;2023-11-21T13:40:55;12.45;;;11.38;;
23590;SDS011;11973;52.098;7.582;2023-11-21T13:43:23;12.60;;;11.50;;
23590;SDS011;11973;52.098;7.582;2023-11-21T13:45:51;11.90;;;10.88;;
23590;SDS011;11973;52.098;7.582;2023-11-21T13:48:31;11.95;;;10.98;;
23590;SDS011;11973;52.098;7.582;2023-11-21T13:51:10;10.52;;;9.48;;
23590;SDS011;11973;52.098;7.582;2023-11-21T13:53:42;8.77;;;8.27;;
23590;SDS011;11973;52.098;7.582;2023-11-21T13:56:18;8.85;;;8.35;;
23590;SDS011;11973;52.098;7.582;2023-11-21T13:58:53;7.68;;;7.30;;
23590;SDS011;11973;52.098;7.582;2023-11-21T14:01:20;7.47;;;7.07;;
23590;SDS011;11973;52.098;7.582;2023-11-21T14:04:08;8.02;;;7.43;;
23590;SDS011;11973;52.098;7.582;2023-11-21T14:06:45;7.35;;;7.03;;
23590;SDS011;11973;52.098;7.582;2023-11-21T14:09:23;7.07;;;6.78;;
23590;SDS011;11973;52.098;7.582;2023-11-21T14:11:56;8.30;;;7.78;;
23590;SDS011;11973;52.098;7.582;2023-11-21T14:14:23;7.68;;;7.28;;
23590;SDS011;11973;52.098;7.582;2023-11-21T14:16:51;7.85;;;7.35;;
23590;SDS011;11973;52.098;7.582;2023-11-21T14:19:17;7.20;;;6.90;;
23590;SDS011;11973;52.098;7.582;2023-11-21T14:21:44;6.88;;;6.55;;
23590;SDS011;11973;52.098;7.582;2023-11-21T14:24:13;6.90;;;6.60;;
23590;SDS011;11973;52.098;7.582;2023-11-21T14:26:42;7.07;;;6.50;;
23590;SDS011;11973;52.098;7.582;2023-11-21T14:29:11;6.85;;;6.45;;
23590;SDS011;11973;52.098;7.582;2023-11-21T14:31:42;6.68;;;6.47;;
23590;SDS011;11973;52.098;7.582;2023-11-21T14:34:08;7.40;;;7.03;;
23590;SDS011;11973;52.098;7.582;2023-11-21T14:36:37;8.30;;;7.90;;
23590;SDS011;11973;52.098;7.582;2023-11-21T14:39:04;7.30;;;6.90;;
23590;SDS011;11973;52.098;7.582;2023-11-21T14:41:34;6.63;;;6.43;;
23590;SDS011;11973;52.098;7.582;2023-11-21T14:44:02;6.88;;;6.57;;
23590;SDS011;11973;52.098;7.582;2023-11-21T14:46:29;7.50;;;7.10;;
23590;SDS011;11973;52.098;7.582;2023-11-21T14:48:55;7.85;;;7.25;;
23590;SDS011;11973;52.098;7.582;2023-11-21T14:51:27;6.63;;;6.43;;
23590;SDS011;11973;52.098;7.582;2023-11-21T14:53:57;6.50;;;6.20;;
23590;SDS011;11973;52.098;7.582;2023-11-21T14:56:34;6.43;;;6.22;;
23590;SDS011;11973;52.098;7.582;2023-11-21T14:59:02;7.32;;;6.85;;
23590;SDS011;11973;52.098;7.582;2023-11-21T15:01:33;7.10;;;6.70;;
23590;SDS011;11973;52.098;7.582;2023-11-21T15:04:18;6.93;;;6.63;;
23590;SDS011;11973;52.098;7.582;2023-11-21T15:07:17;6.53;;;6.22;;
23590;SDS011;11973;52.098;7.582;2023-11-21T15:09:43;7.43;;;6.82;;
23590;SDS011;11973;52.098;7.582;2023-11-21T15:12:10;7.28;;;6.97;;
23590;SDS011;11973;52.098;7.582;2023-11-21T15:14:40;8.50;;;7.88;;
23590;SDS011;11973;52.098;7.582;2023-11-21T15:17:11;7.95;;;7.45;;
23590;SDS011;11973;52.098;7.582;2023-11-21T15:19:43;7.72;;;7.32;;
23590;SDS011;11973;52.098;7.582;2023-11-21T15:22:09;7.60;;;7.15;;
23590;SDS011;11973;52.098;7.582;2023-11-21T15:24:38;8.45;;;7.85;;
23590;SDS011;11973;52.098;7.582;2023-11-21T15:27:07;9.35;;;8.70;;
23590;SDS011;11973;52.098;7.582;2023-11-21T15:29:33;9.75;;;8.80;;
23590;SDS011;11973;52.098;7.582;2023-11-21T15:31:59;9.18;;;8.55;;
23590;SDS011;11973;52.098;7.582;2023-11-21T15:34:26;9.00;;;8.43;;
23590;SDS011;11973;52.098;7.582;2023-11-21T15:36:54;9.30;;;8.50;;
23590;SDS011;11973;52.098;7.582;2023-11-21T15:39:20;8.50;;;8.00;;
23590;SDS011;11973;52.098;7.582;2023-11-21T15:41:48;8.60;;;8.10;;
23590;SDS011;11973;52.098;7.582;2023-11-21T15:44:14;9.00;;;8.40;;
23590;SDS011;11973;52.098;7.582;2023-11-21T15:46:40;10.32;;;9.45;;
23590;SDS011;11973;52.098;7.582;2023-11-21T15:49:07;9.38;;;8.63;;
23590;SDS011;11973;52.098;7.582;2023-11-21T15:51:45;9.63;;;8.93;;
23590;SDS011;11973;52.098;7.582;2023-11-21T15:54:18;9.65;;;8.95;;
23590;SDS011;11973;52.098;7.582;2023-11-21T15:56:46;9.68;;;9.02;;
23590;SDS011;11973;52.098;7.582;2023-11-21T15:59:15;9.45;;;8.65;;
23590;SDS011;11973;52.098;7.582;2023-11-21T16:01:43;9.60;;;8.77;;
23590;SDS011;11973;52.098;7.582;2023-11-21T16:04:12;9.25;;;8.65;;
23590;SDS011;11973;52.098;7.582;2023-11-21T16:06:45;9.27;;;8.65;;
23590;SDS011;11973;52.098;7.582;2023-11-21T16:09:13;9.88;;;9.07;;
23590;SDS011;11973;52.098;7.582;2023-11-21T16:11:49;9.30;;;8.70;;
23590;SDS011;11973;52.098;7.582;2023-11-21T16:14:22;11.27;;;10.40;;
23590;SDS011;11973;52.098;7.582;2023-11-21T16:16:52;10.60;;;9.80;;
23590;SDS011;11973;52.098;7.582;2023-11-21T16:19:18;9.90;;;9.30;;
23590;SDS011;11973;52.098;7.582;2023-11-21T16:21:47;9.48;;;8.82;;
23590;SDS011;11973;52.098;7.582;2023-11-21T16:24:13;9.15;;;8.65;;
23590;SDS011;11973;52.098;7.582;2023-11-21T16:26:45;9.88;;;9.18;;
23590;SDS011;11973;52.098;7.582;2023-11-21T16:29:11;9.02;;;8.52;;
23590;SDS011;11973;52.098;7.582;2023-11-21T16:31:41;10.20;;;9.43;;
23590;SDS011;11973;52.098;7.582;2023-11-21T16:34:14;10.60;;;9.70;;
23590;SDS011;11973;52.098;7.582;2023-11-21T16:36:44;9.10;;;8.32;;
23590;SDS011;11973;52.098;7.582;2023-11-21T16:39:14;9.50;;;8.80;;
23590;SDS011;11973;52.098;7.582;2023-11-21T16:41:41;9.70;;;9.10;;
23590;SDS011;11973;52.098;7.582;2023-11-21T16:44:16;9.25;;;8.65;;
23590;SDS011;11973;52.098;7.582;2023-11-21T16:46:43;9.77;;;9.07;;
23590;SDS011;11973;52.098;7.582;2023-11-21T16:49:22;8.65;;;8.15;;
23590;SDS011;11973;52.098;7.582;2023-11-21T16:51:49;9.65;;;8.85;;
23590;SDS011;11973;52.098;7.582;2023-11-21T16:54:19;9.57;;;8.98;;
23590;SDS011;11973;52.098;7.582;2023-11-21T16:56:45;10.43;;;9.70;;
23590;SDS011;11973;52.098;7.582;2023-11-21T16:59:11;9.73;;;9.13;;
23590;SDS011;11973;52.098;7.582;2023-11-21T17:01:37;10.27;;;9.48;;
23590;SDS011;11973;52.098;7.582;2023-11-21T17:04:03;10.63;;;9.88;;
23590;SDS011;11973;52.098;7.582;2023-11-21T17:06:28;10.85;;;10.05;;
23590;SDS011;11973;52.098;7.582;2023-11-21T17:08:56;10.23;;;9.52;;
23590;SDS011;11973;52.098;7.582;2023-11-21T17:11:22;10.98;;;10.00;;
23590;SDS011;11973;52.098;7.582;2023-11-21T17:13:48;11.30;;;10.40;;
23590;SDS011;11973;52.098;7.582;2023-11-21T17:16:14;13.10;;;12.00;;
23590;SDS011;11973;52.098;7.582;2023-11-21T17:18:41;11.40;;;10.50;;
23590;SDS011;11973;52.098;7.582;2023-11-21T17:21:07;11.75;;;10.88;;
23590;SDS011;11973;52.098;7.582;2023-11-21T17:23:34;12.23;;;11.32;;
23590;SDS011;11973;52.098;7.582;2023-11-21T17:26:00;23.23;;;20.35;;
23590;SDS011;11973;52.098;7.582;2023-11-21T17:28:25;12.07;;;10.98;;
23590;SDS011;11973;52.098;7.582;2023-11-21T17:30:51;13.35;;;12.05;;
23590;SDS011;11973;52.098;7.582;2023-11-21T17:33:17;12.85;;;11.75;;
23590;SDS011;11973;52.098;7.582;2023-11-21T17:35:46;11.57;;;10.77;;
23590;SDS011;11973;52.098;7.582;2023-11-21T17:38:11;12.77;;;11.77;;
23590;SDS011;11973;52.098;7.582;2023-11-21T17:40:40;12.25;;;11.35;;
23590;SDS011;11973;52.098;7.582;2023-11-21T17:43:06;13.07;;;11.98;;
23590;SDS011;11973;52.098;7.582;2023-11-21T17:45:32;12.65;;;11.65;;
23590;SDS011;11973;52.098;7.582;2023-11-21T17:47:58;16.85;;;14.73;;
23590;SDS011;11973;52.098;7.582;2023-11-21T17:50:25;16.77;;;14.82;;
23590;SDS011;11973;52.098;7.582;2023-11-21T17:52:50;17.30;;;14.82;;
23590;SDS011;11973;52.098;7.582;2023-11-21T17:55:16;14.95;;;13.55;;
23590;SDS011;11973;52.098;7.582;2023-11-21T17:57:42;14.63;;;13.40;;
23590;SDS011;11973;52.098;7.582;2023-11-21T18:00:08;17.25;;;14.02;;
23590;SDS011;11973;52.098;7.582;2023-11-21T18:02:35;13.88;;;12.70;;
23590;SDS011;11973;52.098;7.582;2023-11-21T18:05:01;13.68;;;12.57;;
23590;SDS011;11973;52.098;7.582;2023-11-21T18:07:30;13.43;;;12.23;;
23590;SDS011;11973;52.098;7.582;2023-11-21T18:09:56;12.70;;;11.60;;
23590;SDS011;11973;52.098;7.582;2023-11-21T18:12:22;11.57;;;10.70;;
23590;SDS011;11973;52.098;7.582;2023-11-21T18:14:48;12.45;;;11.27;;
23590;SDS011;11973;52.098;7.582;2023-11-21T18:17:16;11.70;;;10.73;;
23590;SDS011;11973;52.098;7.582;2023-11-21T18:19:43;12.43;;;11.40;;
23590;SDS011;11973;52.098;7.582;2023-11-21T18:22:09;11.57;;;10.77;;
23590;SDS011;11973;52.098;7.582;2023-11-21T18:24:35;10.13;;;9.43;;
23590;SDS011;11973;52.098;7.582;2023-11-21T18:27:01;10.88;;;9.88;;
23590;SDS011;11973;52.098;7.582;2023-11-21T18:29:32;11.07;;;10.27;;
23590;SDS011;11973;52.098;7.582;2023-11-21T18:32:00;11.68;;;10.77;;
23590;SDS011;11973;52.098;7.582;2023-11-21T18:34:26;12.77;;;11.88;;
23590;SDS011;11973;52.098;7.582;2023-11-21T18:36:52;13.45;;;12.35;;
23590;SDS011;11973;52.098;7.582;2023-11-21T18:39:18;14.60;;;13.30;;
23590;SDS011;11973;52.098;7.582;2023-11-21T18:41:44;15.68;;;14.35;;
23590;SDS011;11973;52.098;7.582;2023-11-21T18:44:10;16.08;;;14.60;;
23590;SDS011;11973;52.098;7.582;2023-11-21T18:46:36;14.93;;;13.55;;
23590;SDS011;11973;52.098;7.582;2023-11-21T18:49:03;16.42;;;15.10;;
23590;SDS011;11973;52.098;7.582;2023-11-21T18:51:29;17.27;;;15.60;;
23590;SDS011;11973;52.098;7.582;2023-11-21T18:53:55;17.38;;;15.77;;
23590;SDS011;11973;52.098;7.582;2023-11-21T18:56:21;17.77;;;16.10;;
23590;SDS011;11973;52.098;7.582;2023-11-21T18:58:50;18.80;;;16.88;;
23590;SDS011;11973;52.098;7.582;2023-11-21T19:01:28;14.40;;;12.95;;
23590;SDS011;11973;52.098;7.582;2023-11-21T19:03:56;18.55;;;16.80;;
23590;SDS011;11973;52.098;7.582;2023-11-21T19:06:23;17.42;;;15.73;;
23590;SDS011;11973;52.098;7.582;2023-11-21T19:08:50;17.17;;;15.40;;
23590;SDS011;11973;52.098;7.582;2023-11-21T19:11:16;20.60;;;15.95;;
23590;SDS011;11973;52.098;7.582;2023-11-21T19:13:42;19.17;;;14.80;;
23590;SDS011;11973;52.098;7.582;2023-11-21T19:16:08;15.85;;;14.45;;
23590;SDS011;11973;52.098;7.582;2023-11-21T19:18:36;14.02;;;12.63;;
23590;SDS011;11973;52.098;7.582;2023-11-21T19:21:02;15.13;;;13.70;;
23590;SDS011;11973;52.098;7.582;2023-11-21T19:23:28;14.38;;;13.18;;
23590;SDS011;11973;52.098;7.582;2023-11-21T19:25:54;11.45;;;10.52;;
23590;SDS011;11973;52.098;7.582;2023-11-21T19:28:20;10.65;;;9.85;;
23590;SDS011;11973;52.098;7.582;2023-11-21T19:30:45;10.52;;;9.82;;
23590;SDS011;11973;52.098;7.582;2023-11-21T19:33:11;9.80;;;9.18;;
23590;SDS011;11973;52.098;7.582;2023-11-21T19:35:37;9.98;;;9.18;;
23590;SDS011;11973;52.098;7.582;2023-11-21T19:38:06;9.45;;;8.85;;
23590;SDS011;11973;52.098;7.582;2023-11-21T19:40:34;9.98;;;9.23;;
23590;SDS011;11973;52.098;7.582;2023-11-21T19:43:00;9.48;;;8.75;;
23590;SDS011;11973;52.098;7.582;2023-11-21T19:45:28;9.35;;;8.77;;